createdAt,value
2018-05-06T00:00:43.696Z,14.80
2018-05-06T00:03:11.305Z,14.70
2018-05-06T00:05:38.834Z,14.70
2018-05-06T00:08:06.361Z,14.70
2018-05-06T00:10:34.664Z,14.60
2018-05-06T00:13:02.920Z,14.60
2018-05-06T00:15:30.424Z,14.60
2018-05-06T00:17:57.930Z,14.50
2018-05-06T00:20:25.493Z,14.60
2018-05-06T00:22:53.001Z,14.50
2018-05-06T00:25:20.523Z,14.50
2018-05-06T00:27:48.071Z,14.50
2018-05-06T00:30:16.448Z,14.40
2018-05-06T00:32:44.016Z,14.40
2018-05-06T00:35:11.520Z,14.40
2018-05-06T00:37:39.016Z,14.40
2018-05-06T00:40:06.547Z,14.40
2018-05-06T00:42:34.812Z,14.30
2018-05-06T00:45:02.331Z,14.30
2018-05-06T00:47:29.872Z,14.30
2018-05-06T00:49:58.389Z,14.30
2018-05-06T00:52:25.867Z,14.30
2018-05-06T00:54:53.411Z,14.30
2018-05-06T00:57:21.763Z,14.20
2018-05-06T00:59:49.584Z,14.20
2018-05-06T01:02:17.091Z,14.20
2018-05-06T01:04:44.601Z,14.10
2018-05-06T01:07:12.103Z,14.10
2018-05-06T01:09:39.609Z,14.10
2018-05-06T01:12:07.235Z,14.10
2018-05-06T01:14:35.591Z,14.00
2018-05-06T01:17:03.096Z,14.00
2018-05-06T01:19:31.407Z,13.90
2018-05-06T01:21:58.896Z,13.90
2018-05-06T01:24:26.420Z,13.90
2018-05-06T01:26:53.911Z,13.90
2018-05-06T01:29:21.443Z,13.80
2018-05-06T01:31:48.934Z,13.80
2018-05-06T01:34:17.300Z,13.80
2018-05-06T01:36:44.788Z,13.70
2018-05-06T01:39:13.066Z,13.70
2018-05-06T01:41:40.562Z,13.60
2018-05-06T01:44:09.000Z,13.70
2018-05-06T01:46:36.479Z,13.60
2018-05-06T01:49:03.969Z,13.60
2018-05-06T01:51:33.017Z,13.50
2018-05-06T01:54:00.560Z,13.50
2018-05-06T01:56:28.855Z,13.50
2018-05-06T01:58:57.102Z,13.50
2018-05-06T02:01:24.601Z,13.50
2018-05-06T02:03:52.843Z,13.40
2018-05-06T02:06:20.467Z,13.40
2018-05-06T02:08:48.730Z,13.40
2018-05-06T02:11:16.281Z,13.30
2018-05-06T02:13:43.781Z,13.40
2018-05-06T02:16:11.265Z,13.30
2018-05-06T02:18:39.541Z,13.30
2018-05-06T02:21:07.069Z,13.30
2018-05-06T02:23:34.575Z,13.30
2018-05-06T02:26:02.119Z,13.20
2018-05-06T02:28:29.962Z,13.20
2018-05-06T02:30:57.447Z,13.20
2018-05-06T02:33:25.034Z,13.20
2018-05-06T02:35:52.766Z,13.10
2018-05-06T02:38:21.112Z,13.10
2018-05-06T02:40:48.605Z,13.10
2018-05-06T02:43:16.092Z,13.10
2018-05-06T02:45:44.400Z,13.00
2018-05-06T02:48:11.911Z,13.10
2018-05-06T02:50:39.424Z,13.00
2018-05-06T02:53:07.677Z,13.00
2018-05-06T02:55:35.197Z,13.00
2018-05-06T02:58:02.684Z,13.00
2018-05-06T03:00:30.341Z,12.90
2018-05-06T03:02:57.857Z,12.90
2018-05-06T03:05:25.433Z,12.90
2018-05-06T03:07:53.121Z,12.90
2018-05-06T03:10:21.361Z,12.80
2018-05-06T03:12:48.892Z,12.80
2018-05-06T03:15:17.515Z,12.80
2018-05-06T03:17:45.259Z,12.80
2018-05-06T03:20:12.742Z,12.70
2018-05-06T03:22:41.050Z,12.70
2018-05-06T03:25:08.624Z,12.70
2018-05-06T03:27:36.130Z,12.70
2018-05-06T03:30:03.608Z,12.70
2018-05-06T03:32:31.125Z,12.60
2018-05-06T03:34:58.672Z,12.60
2018-05-06T03:37:26.181Z,12.60
2018-05-06T03:39:53.698Z,12.60
2018-05-06T03:42:21.176Z,12.60
2018-05-06T03:44:48.772Z,12.60
2018-05-06T03:47:17.145Z,12.50
2018-05-06T03:49:45.513Z,12.50
2018-05-06T03:52:12.993Z,12.50
2018-05-06T03:54:40.557Z,12.50
2018-05-06T03:57:20.011Z,12.50
2018-05-06T04:00:00.144Z,12.40
2018-05-06T04:02:42.562Z,12.40
2018-05-06T04:05:10.095Z,12.40
2018-05-06T04:07:37.605Z,12.40
2018-05-06T04:10:05.126Z,12.40
2018-05-06T04:12:33.410Z,12.40
2018-05-06T04:15:01.009Z,12.30
2018-05-06T04:17:28.492Z,12.40
2018-05-06T04:19:56.037Z,12.40
2018-05-06T04:22:24.411Z,12.40
2018-05-06T04:24:52.077Z,12.40
2018-05-06T04:27:19.666Z,12.40
2018-05-06T04:29:47.157Z,12.40
2018-05-06T04:32:14.939Z,12.40
2018-05-06T04:34:42.439Z,12.40
2018-05-06T04:37:09.952Z,12.40
2018-05-06T04:39:37.861Z,12.40
2018-05-06T04:42:05.378Z,12.40
2018-05-06T04:44:32.862Z,12.40
2018-05-06T04:47:01.178Z,12.50
2018-05-06T04:49:28.865Z,12.40
2018-05-06T04:51:56.404Z,12.50
2018-05-06T04:54:23.883Z,12.50
2018-05-06T04:56:52.160Z,12.40
2018-05-06T04:59:19.744Z,12.40
2018-05-06T05:01:48.121Z,12.50
2018-05-06T05:04:15.644Z,12.40
2018-05-06T05:06:43.196Z,12.50
2018-05-06T05:09:10.775Z,12.50
2018-05-06T05:11:38.302Z,12.50
2018-05-06T05:14:06.600Z,12.50
2018-05-06T05:16:34.091Z,12.60
2018-05-06T05:19:01.947Z,12.60
2018-05-06T05:21:29.435Z,12.60
2018-05-06T05:23:57.733Z,12.60
2018-05-06T05:26:25.239Z,12.60
2018-05-06T05:28:52.729Z,12.70
2018-05-06T05:31:20.302Z,12.70
2018-05-06T05:33:47.801Z,12.70
2018-05-06T05:36:16.080Z,12.90
2018-05-06T05:38:44.870Z,12.80
2018-05-06T05:41:13.155Z,12.90
2018-05-06T05:43:40.656Z,12.90
2018-05-06T05:46:08.903Z,12.90
2018-05-06T05:48:36.433Z,12.90
2018-05-06T05:51:04.125Z,12.90
2018-05-06T05:53:31.744Z,13.00
2018-05-06T05:56:00.028Z,13.10
2018-05-06T05:58:28.311Z,13.10
2018-05-06T06:00:55.890Z,13.10
2018-05-06T06:03:23.450Z,13.10
2018-05-06T06:05:51.029Z,13.20
2018-05-06T06:08:18.516Z,13.20
2018-05-06T06:10:46.928Z,13.30
2018-05-06T06:13:14.492Z,13.30
2018-05-06T06:15:42.045Z,13.30
2018-05-06T06:18:10.339Z,13.40
2018-05-06T06:20:39.391Z,13.50
2018-05-06T06:23:06.879Z,13.50
2018-05-06T06:25:34.474Z,13.60
2018-05-06T06:28:01.995Z,13.60
2018-05-06T06:30:29.639Z,13.60
2018-05-06T06:32:57.909Z,13.60
2018-05-06T06:35:26.067Z,13.70
2018-05-06T06:37:53.570Z,13.70
2018-05-06T06:40:21.963Z,13.80
2018-05-06T06:42:50.214Z,13.80
2018-05-06T06:45:17.928Z,13.80
2018-05-06T06:47:46.200Z,14.00
2018-05-06T06:50:13.827Z,13.90
2018-05-06T06:52:41.623Z,14.00
2018-05-06T06:55:09.114Z,14.10
2018-05-06T06:57:36.634Z,14.10
2018-05-06T07:00:04.287Z,14.20
2018-05-06T07:02:32.563Z,14.30
2018-05-06T07:05:00.168Z,14.20
2018-05-06T07:07:27.834Z,14.30
2018-05-06T07:09:55.346Z,14.40
2018-05-06T07:12:22.858Z,14.40
2018-05-06T07:14:51.140Z,14.50
2018-05-06T07:17:19.525Z,14.60
2018-05-06T07:19:47.055Z,14.60
2018-05-06T07:22:14.781Z,14.70
2018-05-06T07:24:43.028Z,14.80
2018-05-06T07:27:10.586Z,14.80
2018-05-06T07:29:38.107Z,14.90
2018-05-06T07:32:06.476Z,15.00
2018-05-06T07:34:34.080Z,15.00
2018-05-06T07:37:02.344Z,15.10
2018-05-06T07:39:29.870Z,15.10
2018-05-06T07:41:57.408Z,15.20
2018-05-06T07:44:25.686Z,15.20
2018-05-06T07:46:53.970Z,15.30
2018-05-06T07:49:22.235Z,15.40
2018-05-06T07:51:49.830Z,15.40
2018-05-06T07:54:17.343Z,15.40
2018-05-06T07:56:44.832Z,15.50
2018-05-06T07:59:12.339Z,15.60
2018-05-06T08:01:39.830Z,15.70
2018-05-06T08:04:08.129Z,15.80
2018-05-06T08:06:35.624Z,15.80
2018-05-06T08:09:03.178Z,15.90
2018-05-06T08:11:30.945Z,15.90
2018-05-06T08:13:58.491Z,16.00
2018-05-06T08:16:26.838Z,16.20
2018-05-06T08:18:54.353Z,16.10
2018-05-06T08:21:22.647Z,16.40
2018-05-06T08:23:50.971Z,16.40
2018-05-06T08:26:18.506Z,16.40
2018-05-06T08:28:46.786Z,16.50
2018-05-06T08:31:15.149Z,16.60
2018-05-06T08:33:43.381Z,16.70
2018-05-06T08:36:10.911Z,16.70
2018-05-06T08:38:38.622Z,16.80
2018-05-06T08:41:06.981Z,17.00
2018-05-06T08:43:34.582Z,17.00
2018-05-06T08:46:03.236Z,17.10
2018-05-06T08:48:30.774Z,17.10
2018-05-06T08:50:58.975Z,17.20
2018-05-06T08:53:26.612Z,17.20
2018-05-06T08:55:54.215Z,17.30
2018-05-06T08:58:22.207Z,17.40
2018-05-06T09:00:49.815Z,17.50
2018-05-06T09:03:17.376Z,17.60
2018-05-06T09:05:44.904Z,17.70
2018-05-06T09:08:12.418Z,17.80
2018-05-06T09:10:40.001Z,17.90
2018-05-06T09:13:07.529Z,17.90
2018-05-06T09:15:35.298Z,18.10
2018-05-06T09:18:02.962Z,18.20
2018-05-06T09:20:30.652Z,18.30
2018-05-06T09:22:58.201Z,18.40
2018-05-06T09:25:26.696Z,18.70
2018-05-06T09:27:55.034Z,18.90
2018-05-06T09:30:22.566Z,18.90
2018-05-06T09:32:50.168Z,19.10
2018-05-06T09:35:17.675Z,19.30
2018-05-06T09:37:46.036Z,19.80
2018-05-06T09:40:14.244Z,20.00
2018-05-06T09:42:41.846Z,20.00
2018-05-06T09:45:10.287Z,20.60
2018-05-06T09:47:37.821Z,20.60
2018-05-06T09:50:05.670Z,20.90
2018-05-06T09:52:34.074Z,21.40
2018-05-06T09:55:02.430Z,21.70
2018-05-06T09:57:29.931Z,21.70
2018-05-06T09:59:57.553Z,22.10
2018-05-06T10:02:25.022Z,22.40
2018-05-06T10:04:52.811Z,22.60
2018-05-06T10:07:20.285Z,22.80
2018-05-06T10:09:48.194Z,23.10
2018-05-06T10:12:15.770Z,23.40
2018-05-06T10:14:44.057Z,23.80
2018-05-06T10:17:12.790Z,24.20
2018-05-06T10:19:41.455Z,24.20
2018-05-06T10:22:10.757Z,24.40
2018-05-06T10:24:39.164Z,24.50
2018-05-06T10:27:06.852Z,24.50
2018-05-06T10:29:34.475Z,24.60
2018-05-06T10:32:02.108Z,25.00
2018-05-06T10:34:29.742Z,25.30
2018-05-06T10:36:57.439Z,25.30
2018-05-06T10:39:25.219Z,25.60
2018-05-06T10:41:52.770Z,25.90
2018-05-06T10:44:20.307Z,26.10
2018-05-06T10:46:48.656Z,26.80
2018-05-06T10:49:16.264Z,26.70
2018-05-06T10:51:43.784Z,26.90
2018-05-06T10:54:11.462Z,27.10
2018-05-06T10:56:39.031Z,27.20
2018-05-06T10:59:06.541Z,27.30
2018-05-06T11:01:34.039Z,27.50
2018-05-06T11:04:01.915Z,27.70
2018-05-06T11:06:29.398Z,27.90
2018-05-06T11:08:57.728Z,27.60
2018-05-06T11:11:25.229Z,27.60
2018-05-06T11:13:52.740Z,27.60
2018-05-06T11:16:21.127Z,27.80
2018-05-06T11:18:49.484Z,27.90
2018-05-06T11:21:17.033Z,27.90
2018-05-06T11:23:44.550Z,28.00
2018-05-06T11:26:12.138Z,28.10
2018-05-06T11:28:39.658Z,28.40
2018-05-06T11:31:07.180Z,28.70
2018-05-06T11:33:36.311Z,29.00
2018-05-06T11:36:03.825Z,28.90
2018-05-06T11:38:31.598Z,29.10
2018-05-06T11:41:00.624Z,29.30
2018-05-06T11:43:29.181Z,29.00
2018-05-06T11:45:57.187Z,29.00
2018-05-06T11:48:24.774Z,29.20
2018-05-06T11:50:53.112Z,29.70
2018-05-06T11:53:20.853Z,29.70
2018-05-06T11:55:49.300Z,30.10
2018-05-06T11:58:17.951Z,30.30
2018-05-06T12:00:45.485Z,30.20
2018-05-06T12:03:13.007Z,30.40
2018-05-06T12:05:40.563Z,30.20
2018-05-06T12:08:08.147Z,30.40
2018-05-06T12:10:35.731Z,30.20
2018-05-06T12:13:03.256Z,30.20
2018-05-06T12:15:31.784Z,30.10
2018-05-06T12:17:59.283Z,30.00
2018-05-06T12:20:26.808Z,30.10
2018-05-06T12:22:54.607Z,30.30
2018-05-06T12:25:22.185Z,30.40
2018-05-06T12:27:49.743Z,30.60
2018-05-06T12:30:17.356Z,30.70
2018-05-06T12:32:44.887Z,30.60
2018-05-06T12:35:12.372Z,30.80
2018-05-06T12:37:39.890Z,30.90
2018-05-06T12:40:08.173Z,30.90
2018-05-06T12:42:35.685Z,30.90
2018-05-06T12:45:03.205Z,30.80
2018-05-06T12:47:30.739Z,30.90
2018-05-06T12:49:58.303Z,31.00
2018-05-06T12:52:26.341Z,31.10
2018-05-06T12:54:53.914Z,31.20
2018-05-06T12:57:21.585Z,31.20
2018-05-06T12:59:49.246Z,31.30
2018-05-06T13:02:16.825Z,31.40
2018-05-06T13:04:45.262Z,31.30
2018-05-06T13:07:13.537Z,31.40
2018-05-06T13:09:42.749Z,31.30
2018-05-06T13:12:10.572Z,31.30
2018-05-06T13:14:38.217Z,31.40
2018-05-06T13:17:05.834Z,31.40
2018-05-06T13:19:33.369Z,31.40
2018-05-06T13:22:00.955Z,31.40
2018-05-06T13:24:28.872Z,31.40
2018-05-06T13:26:56.420Z,31.40
2018-05-06T13:29:23.985Z,31.50
2018-05-06T13:31:51.811Z,31.50
2018-05-06T13:34:20.230Z,31.30
2018-05-06T13:36:47.762Z,31.30
2018-05-06T13:39:15.300Z,31.30
2018-05-06T13:41:42.840Z,31.20
2018-05-06T13:44:10.461Z,31.00
2018-05-06T13:46:37.991Z,31.00
2018-05-06T13:49:05.546Z,31.00
2018-05-06T13:51:33.831Z,30.90
2018-05-06T13:54:02.891Z,30.60
2018-05-06T13:56:30.408Z,30.60
2018-05-06T13:58:58.735Z,30.30
2018-05-06T14:01:26.395Z,30.30
2018-05-06T14:03:53.966Z,30.30
2018-05-06T14:06:21.498Z,30.20
2018-05-06T14:08:49.097Z,30.10
2018-05-06T14:11:16.626Z,30.10
2018-05-06T14:13:44.771Z,29.90
2018-05-06T14:16:12.277Z,29.90
2018-05-06T14:18:39.970Z,29.90
2018-05-06T14:21:07.631Z,29.80
2018-05-06T14:23:35.320Z,29.70
2018-05-06T14:26:02.876Z,29.70
2018-05-06T14:28:30.971Z,29.60
2018-05-06T14:30:58.662Z,29.50
2018-05-06T14:33:26.945Z,29.40
2018-05-06T14:35:54.510Z,29.40
2018-05-06T14:38:22.206Z,29.20
2018-05-06T14:40:50.507Z,28.90
2018-05-06T14:43:18.024Z,28.90
2018-05-06T14:45:45.652Z,28.80
2018-05-06T14:48:16.374Z,28.70
2018-05-06T14:50:44.734Z,28.60
2018-05-06T14:53:12.243Z,28.60
2018-05-06T14:55:40.545Z,28.50
2018-05-06T14:58:08.224Z,28.50
2018-05-06T15:00:35.703Z,28.20
2018-05-06T15:03:03.266Z,28.00
2018-05-06T15:05:30.787Z,27.90
2018-05-06T15:07:59.085Z,27.80
2018-05-06T15:10:26.833Z,27.80
2018-05-06T15:12:54.338Z,27.80
2018-05-06T15:15:23.294Z,27.80
2018-05-06T15:17:50.836Z,27.70
2018-05-06T15:20:19.110Z,27.60
2018-05-06T15:22:47.404Z,27.50
2018-05-06T15:25:15.700Z,27.50
2018-05-06T15:27:43.199Z,27.50
2018-05-06T15:30:10.720Z,27.40
2018-05-06T15:32:39.161Z,27.20
2018-05-06T15:35:06.657Z,27.20
2018-05-06T15:37:34.259Z,27.20
2018-05-06T15:40:02.753Z,27.10
2018-05-06T15:42:30.336Z,27.10
2018-05-06T15:44:59.457Z,27.00
2018-05-06T15:47:27.012Z,27.00
2018-05-06T15:49:55.288Z,26.70
2018-05-06T15:52:22.899Z,26.70
2018-05-06T15:54:50.449Z,26.70
2018-05-06T15:57:18.716Z,26.50
2018-05-06T15:59:46.333Z,26.40
2018-05-06T16:05:10.556Z,26.30
2018-05-06T16:07:38.044Z,26.20
2018-05-06T16:10:05.583Z,26.10
2018-05-06T16:12:33.857Z,25.90
2018-05-06T16:15:02.196Z,25.80
2018-05-06T16:17:29.817Z,25.70
2018-05-06T16:19:58.067Z,25.60
2018-05-06T16:22:25.688Z,25.60
2018-05-06T16:24:53.276Z,25.60
2018-05-06T16:27:20.846Z,25.50
2018-05-06T16:29:49.142Z,25.30
2018-05-06T16:32:16.639Z,25.20
2018-05-06T16:34:44.246Z,25.20
2018-05-06T16:37:11.775Z,25.10
2018-05-06T16:39:39.303Z,25.10
2018-05-06T16:42:07.654Z,24.90
2018-05-06T16:44:35.461Z,24.90
2018-05-06T16:47:02.997Z,24.80
2018-05-06T16:49:30.532Z,24.80
2018-05-06T16:51:58.043Z,24.60
2018-05-06T16:54:25.613Z,24.60
2018-05-06T16:56:53.213Z,24.50
2018-05-06T16:59:20.983Z,24.40
2018-05-06T17:01:48.665Z,24.40
2018-05-06T17:04:16.934Z,24.30
2018-05-06T17:06:44.940Z,24.20
2018-05-06T17:09:13.244Z,24.10
2018-05-06T17:11:41.509Z,24.00
2018-05-06T17:14:09.467Z,24.00
2018-05-06T17:16:37.444Z,24.00
2018-05-06T17:19:05.920Z,23.90
2018-05-06T17:21:33.968Z,23.80
2018-05-06T17:24:02.372Z,23.70
2018-05-06T17:26:30.148Z,23.70
2018-05-06T17:28:57.674Z,23.60
2018-05-06T17:31:25.215Z,23.50
2018-05-06T17:33:52.811Z,23.50
2018-05-06T17:36:20.740Z,23.40
2018-05-06T17:38:48.365Z,23.40
2018-05-06T17:41:15.983Z,23.30
2018-05-06T17:43:43.518Z,23.20
2018-05-06T17:46:11.139Z,23.10
2018-05-06T17:48:38.785Z,23.10
2018-05-06T17:51:07.110Z,23.00
2018-05-06T17:53:34.778Z,23.00
2018-05-06T17:56:02.358Z,23.00
2018-05-06T17:58:29.960Z,23.00
2018-05-06T18:00:57.608Z,22.90
2018-05-06T18:03:25.172Z,22.90
2018-05-06T18:05:52.797Z,22.80
2018-05-06T18:08:21.552Z,22.70
2018-05-06T18:10:49.070Z,22.70
2018-05-06T18:13:17.164Z,22.70
2018-05-06T18:15:45.585Z,22.50
2018-05-06T18:18:13.366Z,22.40
2018-05-06T18:20:41.117Z,22.40
2018-05-06T18:23:09.554Z,22.40
2018-05-06T18:25:37.319Z,22.30
2018-05-06T18:28:05.504Z,22.30
2018-05-06T18:30:33.267Z,22.30
2018-05-06T18:33:00.987Z,22.20
2018-05-06T18:35:29.156Z,22.10
2018-05-06T18:37:57.210Z,22.10
2018-05-06T18:40:25.384Z,22.10
2018-05-06T18:42:53.333Z,22.00
2018-05-06T18:45:21.692Z,22.00
2018-05-06T18:47:49.966Z,21.90
2018-05-06T18:50:18.437Z,21.80
2018-05-06T18:52:46.997Z,21.70
2018-05-06T18:55:15.244Z,21.70
2018-05-06T18:57:43.629Z,21.70
2018-05-06T19:00:11.882Z,21.60
2018-05-06T19:02:40.561Z,21.50
2018-05-06T19:05:08.730Z,21.50
2018-05-06T19:07:37.309Z,21.50
2018-05-06T19:10:05.698Z,21.40
2018-05-06T19:12:33.603Z,21.30
2018-05-06T19:15:01.850Z,21.30
2018-05-06T19:17:30.468Z,21.20
2018-05-06T19:19:58.252Z,21.10
2018-05-06T19:22:26.931Z,21.00
2018-05-06T19:24:55.511Z,21.00
2018-05-06T19:27:23.537Z,20.90
2018-05-06T19:29:51.940Z,20.80
2018-05-06T19:32:19.872Z,20.80
2018-05-06T19:34:47.593Z,20.80
2018-05-06T19:37:15.478Z,20.70
2018-05-06T19:39:51.205Z,20.50
2018-05-06T19:42:19.402Z,20.60
2018-05-06T19:44:47.657Z,20.50
2018-05-06T19:47:15.683Z,20.40
2018-05-06T19:49:43.937Z,20.30
2018-05-06T19:52:13.900Z,20.20
2018-05-06T19:54:42.200Z,20.20
2018-05-06T19:57:11.245Z,20.10
2018-05-06T19:59:40.705Z,20.00
2018-05-06T20:02:09.394Z,20.00
2018-05-06T20:04:37.478Z,19.90
2018-05-06T20:07:05.955Z,19.80
2018-05-06T20:09:34.467Z,19.70
2018-05-06T20:12:04.232Z,19.70
2018-05-06T20:14:33.551Z,19.60
2018-05-06T20:17:02.400Z,19.60
2018-05-06T20:19:30.782Z,19.50
2018-05-06T20:21:58.790Z,19.50
2018-05-06T20:24:27.052Z,19.40
2018-05-06T20:26:55.212Z,19.40
2018-05-06T20:29:23.667Z,19.40
2018-05-06T20:31:53.106Z,19.30
2018-05-06T20:34:20.829Z,19.30
2018-05-06T20:36:49.031Z,19.30
2018-05-06T20:39:17.400Z,19.70
2018-05-06T20:41:45.600Z,19.90
2018-05-06T20:44:13.433Z,20.00
2018-05-06T20:46:41.048Z,20.20
2018-05-06T20:49:08.598Z,20.30
2018-05-06T20:51:36.470Z,20.30
2018-05-06T20:54:05.143Z,20.20
2018-05-06T20:56:32.936Z,20.20
2018-05-06T20:59:00.523Z,20.10
2018-05-06T21:01:28.172Z,20.00
2018-05-06T21:03:55.758Z,19.80
2018-05-06T21:06:23.254Z,19.80
2018-05-06T21:08:50.961Z,19.80
2018-05-06T21:11:18.495Z,19.90
2018-05-06T21:13:45.981Z,19.80
2018-05-06T21:16:13.636Z,19.70
2018-05-06T21:18:41.284Z,19.70
2018-05-06T21:21:08.998Z,19.70
2018-05-06T21:23:36.484Z,19.60
2018-05-06T21:26:04.039Z,19.60
2018-05-06T21:28:31.638Z,19.60
2018-05-06T21:30:59.555Z,19.50
2018-05-06T21:33:27.152Z,19.50
2018-05-06T21:35:54.997Z,19.60
2018-05-06T21:38:23.368Z,19.70
2018-05-06T21:40:52.556Z,19.70
2018-05-06T21:43:20.124Z,19.70
2018-05-06T21:45:47.824Z,19.70
2018-05-06T21:48:16.120Z,19.70
2018-05-06T21:50:44.419Z,19.70
2018-05-06T21:53:11.984Z,19.70
2018-05-06T21:55:40.256Z,19.80
2018-05-06T21:58:07.843Z,19.90
2018-05-06T22:00:36.103Z,19.90
2018-05-06T22:03:04.508Z,19.90
2018-05-06T22:05:32.092Z,19.90
2018-05-06T22:07:59.784Z,19.80
2018-05-06T22:10:27.337Z,19.80
2018-05-06T22:12:55.791Z,19.40
2018-05-06T22:15:23.518Z,19.40
2018-05-06T22:17:51.891Z,18.90
2018-05-06T22:20:20.614Z,18.90
2018-05-06T22:22:48.172Z,18.80
2018-05-06T22:25:15.669Z,18.70
2018-05-06T22:27:43.206Z,18.60
2018-05-06T22:30:11.489Z,18.30
2018-05-06T22:32:39.067Z,18.30
2018-05-06T22:35:07.358Z,18.10
2018-05-06T22:37:35.617Z,18.10
2018-05-06T22:40:03.147Z,18.00
2018-05-06T22:42:30.665Z,18.00
2018-05-06T22:44:58.351Z,17.90
2018-05-06T22:47:25.850Z,17.80
2018-05-06T22:49:53.393Z,17.70
2018-05-06T22:52:21.649Z,17.60
2018-05-06T22:54:49.355Z,17.60
2018-05-06T22:57:17.683Z,17.60
2018-05-06T22:59:45.207Z,17.50
2018-05-06T23:02:12.807Z,17.50
2018-05-06T23:04:40.294Z,17.50
2018-05-06T23:07:07.806Z,17.50
2018-05-06T23:09:35.310Z,17.40
2018-05-06T23:12:03.720Z,17.30
2018-05-06T23:14:31.356Z,17.30
2018-05-06T23:16:58.871Z,17.30
2018-05-06T23:19:26.350Z,17.20
2018-05-06T23:21:54.026Z,17.20
2018-05-06T23:24:21.876Z,17.10
2018-05-06T23:26:49.379Z,17.00
2018-05-06T23:29:16.945Z,17.00
2018-05-06T23:31:44.457Z,16.90
2018-05-06T23:34:12.020Z,16.90
2018-05-06T23:36:39.529Z,16.80
2018-05-06T23:39:07.059Z,16.80
2018-05-06T23:41:34.551Z,16.70
2018-05-06T23:44:02.836Z,16.60
2018-05-06T23:46:30.532Z,16.60
2018-05-06T23:48:58.059Z,16.60
2018-05-06T23:51:25.634Z,16.50
2018-05-06T23:53:53.144Z,16.50
2018-05-06T23:56:20.758Z,16.50
2018-05-06T23:58:48.315Z,16.40
